Time;durP1;ratioP1;P1;durP2;ratioP2;P2;SDS_P1;SDS_P2;PMS_P1;PMS_P2;Temp;Humidity;BMP_temperature;BMP_pressure;BME280_temperature;BME280_humidity;BME280_pressure;Samples;Min_cycle;Max_cycle;Signal;HPM_P1;HPM_P2
2022/01/04 00:00:51;;;;;;;;;;;;;;;;;;2114527;28;19927;-46
2022/01/04 00:01:51;;;;;;;;;;;;;;;;;;2105625;28;19920;-46
2022/01/04 00:02:53;;;;;;;;;;;;;;;;;;2106019;28;20341;-47
2022/01/04 00:03:53;;;;;;;;;;;;;;;;;;2106248;28;19920;-46
2022/01/04 00:04:54;;;;;;;;;;;;;;;;;;2106736;28;19964;-46
2022/01/04 00:05:55;;;;;;;;;;;;;;;;;;2097825;28;19926;-45
2022/01/04 00:06:57;;;;;;;;;;;;;;;;;;2097720;28;19920;-46
2022/01/04 00:07:59;;;;;;;;;;;;;;;;;;2105784;28;20013;-47
2022/01/04 00:09:02;;;;;;;;;;;;;;;;;;2097810;28;20019;-46
2022/01/04 00:10:03;;;;;;;;;;;;;;;;;;2097964;28;20042;-46
2022/01/04 00:11:08;;;;;;;;;;;;;;;;;;2104158;28;19973;-46
2022/01/04 00:13:28;;;;;;;;;;;;;;;;;;2105598;28;20077;-45
2022/01/04 00:14:29;;;;;;;;;;;;;;;;;;2113117;28;19920;-45
2022/01/04 00:15:30;;;;;;;;;;;;;;;;;;2116238;28;20311;-47
2022/01/04 00:16:31;;;;;;;;;;;;;;;;;;2109387;28;20029;-46
2022/01/04 00:17:32;;;;;;;;;;;;;;;;;;2106815;28;19920;-46
2022/01/04 00:18:33;;;;;;;;;;;;;;;;;;2107493;28;19927;-46
2022/01/04 00:19:33;;;;;;;;;;;;;;;;;;2105617;28;19972;-46
2022/01/04 00:20:35;;;;;;;;;;;;;;;;;;2099301;28;19937;-46
2022/01/04 00:21:36;;;;;;;;;;;;;;;;;;2098843;28;20302;-45
2022/01/04 00:22:36;;;;;;;;;;;;;;;;;;2105573;28;19978;-47
2022/01/04 00:23:37;;;;;;;;;;;;;;;;;;2107638;28;19920;-47
2022/01/04 00:24:38;;;;;;;;;;;;;;;;;;2107178;28;20400;-47
2022/01/04 00:25:39;;;;;;;;;;;;;;;;;;2105758;28;19997;-46
2022/01/04 00:26:40;;;;;;;;;;;;;;;;;;2107587;28;19955;-46
2022/01/04 00:27:41;;;;;;;;;;;;;;;;;;2106932;28;19920;-46
2022/01/04 00:28:41;;;;;;;;;;;;;;;;;;2105875;28;20369;-45
2022/01/04 00:29:42;;;;;;;;;;;;;;;;;;2107549;28;20331;-46
2022/01/04 00:30:43;;;;;;;;;;;;;;;;;;2106371;28;19926;-46
2022/01/04 00:31:44;;;;;;;;;;;;;;;;;;2102395;28;19920;-46
2022/01/04 00:32:44;;;;;;;;;;;;;;;;;;2107569;28;20399;-46
2022/01/04 00:33:45;;;;;;;;;;;;;;;;;;2105572;28;20331;-46
2022/01/04 00:34:46;;;;;;;;;;;;;;;;;;2103111;28;19920;-46
2022/01/04 00:35:47;;;;;;;;;;;;;;;;;;2099164;28;19920;-47
2022/01/04 00:36:48;;;;;;;;;;;;;;;;;;2100883;28;19927;-46
2022/01/04 00:37:49;;;;;;;;;;;;;;;;;;2105052;28;20007;-46
2022/01/04 00:38:50;;;;;;;;;;;;;;;;;;2099137;28;19928;-45
2022/01/04 00:39:50;;;;;;;;;;;;;;;;;;2102206;28;19924;-45
2022/01/04 00:40:51;;;;;;;;;;;;;;;;;;2103652;28;20380;-46
2022/01/04 00:41:52;;;;;;;;;;;;;;;;;;2099140;28;19920;-46
2022/01/04 00:42:55;;;;;;;;;;;;;;;;;;2102517;28;19920;-45
2022/01/04 00:43:56;;;;;;;;;;;;;;;;;;2107273;28;19930;-45
2022/01/04 00:44:56;;;;;;;;;;;;;;;;;;2107525;28;19920;-45
2022/01/04 00:45:57;;;;;;;;;;;;;;;;;;2106301;28;19928;-46
2022/01/04 00:46:59;;;;;;;;;;;;;;;;;;2106248;28;19948;-46
2022/01/04 00:49:21;;;;;;;;;;;;;;;;;;2107691;28;20050;-45
2022/01/04 00:50:22;;;;;;;;;;;;;;;;;;2107401;28;20015;-46
2022/01/04 00:51:23;;;;;;;;;;;;;;;;;;2106977;28;19924;-46
2022/01/04 00:52:24;;;;;;;;;;;;;;;;;;2102573;28;19926;-45
2022/01/04 00:53:24;;;;;;;;;;;;;;;;;;2099036;28;19920;-46
2022/01/04 00:54:25;;;;;;;;;;;;;;;;;;2099664;28;19920;-46
2022/01/04 00:55:26;;;;;;;;;;;;;;;;;;2106233;28;19921;-46
2022/01/04 00:56:27;;;;;;;;;;;;;;;;;;2099043;28;20280;-46
2022/01/04 00:57:28;;;;;;;;;;;;;;;;;;2099759;28;19921;-45
2022/01/04 00:58:28;;;;;;;;;;;;;;;;;;2110569;28;19920;-45
2022/01/04 00:59:29;;;;;;;;;;;;;;;;;;2115788;28;19968;-46
2022/01/04 01:00:30;;;;;;;;;;;;;;;;;;2111341;28;19927;-45
2022/01/04 01:01:31;;;;;;;;;;;;;;;;;;2106155;28;19920;-46
2022/01/04 01:02:32;;;;;;;;;;;;;;;;;;2107291;28;20357;-46
2022/01/04 01:03:33;;;;;;;;;;;;;;;;;;2105189;28;19935;-46
2022/01/04 01:04:34;;;;;;;;;;;;;;;;;;2113494;28;19984;-45
2022/01/04 01:05:35;;;;;;;;;;;;;;;;;;2115718;28;20296;-45
2022/01/04 01:06:35;;;;;;;;;;;;;;;;;;2110447;28;19927;-45
2022/01/04 01:07:36;;;;;;;;;;;;;;;;;;2105821;28;19924;-45
2022/01/04 01:08:37;;;;;;;;;;;;;;;;;;2107372;28;19927;-51
2022/01/04 01:09:48;;;;;;;;;;;;;;;;;;2104984;28;19924;-51
2022/01/04 01:10:50;;;;;;;;;;;;;;;;;;2106559;28;20360;-52
2022/01/04 01:11:51;;;;;;;;;;;;;;;;;;2107300;28;20012;-49
2022/01/04 01:12:52;;;;;;;;;;;;;;;;;;2105843;28;19919;-50
2022/01/04 01:13:53;;;;;;;;;;;;;;;;;;2107327;28;20004;-50
2022/01/04 01:14:53;;;;;;;;;;;;;;;;;;2107163;28;20425;-49
2022/01/04 01:15:54;;;;;;;;;;;;;;;;;;2104954;28;20415;-50
2022/01/04 01:16:55;;;;;;;;;;;;;;;;;;2107152;28;19920;-50
2022/01/04 01:17:56;;;;;;;;;;;;;;;;;;2107182;28;19923;-50
2022/01/04 01:18:57;;;;;;;;;;;;;;;;;;2104760;28;19921;-49
2022/01/04 01:19:57;;;;;;;;;;;;;;;;;;2107354;28;20369;-50
2022/01/04 01:20:59;;;;;;;;;;;;;;;;;;2106627;28;20285;-51
2022/01/04 01:22:00;;;;;;;;;;;;;;;;;;2105121;28;19931;-51
2022/01/04 01:23:01;;;;;;;;;;;;;;;;;;2106254;28;19920;-51
2022/01/04 01:24:04;;;;;;;;;;;;;;;;;;2106291;28;19924;-50
2022/01/04 01:25:05;;;;;;;;;;;;;;;;;;2105813;28;19924;-50
2022/01/04 01:26:06;;;;;;;;;;;;;;;;;;2107120;28;20391;-49
2022/01/04 01:27:06;;;;;;;;;;;;;;;;;;2105885;28;19920;-49
2022/01/04 01:28:07;;;;;;;;;;;;;;;;;;2106273;28;20337;-49
2022/01/04 01:29:08;;;;;;;;;;;;;;;;;;2107240;28;19927;-49
2022/01/04 01:30:09;;;;;;;;;;;;;;;;;;2105178;28;19928;-49
2022/01/04 01:31:11;;;;;;;;;;;;;;;;;;2111929;28;19934;-50
2022/01/04 01:32:12;;;;;;;;;;;;;;;;;;2109234;28;19927;-51
2022/01/04 01:33:13;;;;;;;;;;;;;;;;;;2105176;28;19920;-50
2022/01/04 01:34:13;;;;;;;;;;;;;;;;;;2112106;28;19919;-49
2022/01/04 01:35:14;;;;;;;;;;;;;;;;;;2115476;28;19969;-49
2022/01/04 01:36:15;;;;;;;;;;;;;;;;;;2109014;28;19935;-49
2022/01/04 01:37:16;;;;;;;;;;;;;;;;;;2100890;28;19921;-49
2022/01/04 01:38:19;;;;;;;;;;;;;;;;;;2098877;28;19921;-50
2022/01/04 01:39:20;;;;;;;;;;;;;;;;;;2102409;28;20011;-50
2022/01/04 01:40:21;;;;;;;;;;;;;;;;;;2106256;28;19920;-49
2022/01/04 01:41:21;;;;;;;;;;;;;;;;;;2107058;28;20093;-49
2022/01/04 01:42:23;;;;;;;;;;;;;;;;;;2104892;28;19927;-50
2022/01/04 01:43:26;;;;;;;;;;;;;;;;;;2105782;28;19927;-50
2022/01/04 01:44:26;;;;;;;;;;;;;;;;;;2107015;28;20014;-50
2022/01/04 01:45:27;;;;;;;;;;;;;;;;;;2104589;28;19966;-49
2022/01/04 01:46:28;;;;;;;;;;;;;;;;;;2106838;28;19920;-49
2022/01/04 01:47:29;;;;;;;;;;;;;;;;;;2107047;28;19920;-51
2022/01/04 01:48:30;;;;;;;;;;;;;;;;;;2104993;28;19927;-49
2022/01/04 01:49:31;;;;;;;;;;;;;;;;;;2115607;28;20326;-50
2022/01/04 01:50:32;;;;;;;;;;;;;;;;;;2115468;28;19926;-50
2022/01/04 01:51:33;;;;;;;;;;;;;;;;;;2104702;28;19920;-52
2022/01/04 01:52:34;;;;;;;;;;;;;;;;;;2107064;28;20334;-50
2022/01/04 01:53:34;;;;;;;;;;;;;;;;;;2106419;28;20407;-50
2022/01/04 01:54:35;;;;;;;;;;;;;;;;;;2105005;28;19981;-49
2022/01/04 01:55:36;;;;;;;;;;;;;;;;;;2106946;28;19923;-50
2022/01/04 01:56:37;;;;;;;;;;;;;;;;;;2106539;28;20274;-50
2022/01/04 01:57:38;;;;;;;;;;;;;;;;;;2105904;28;20293;-49
2022/01/04 01:58:38;;;;;;;;;;;;;;;;;;2098732;28;19931;-51
2022/01/04 01:59:39;;;;;;;;;;;;;;;;;;2099364;28;19920;-52
2022/01/04 02:00:40;;;;;;;;;;;;;;;;;;2105423;28;19924;-49
2022/01/04 02:01:41;;;;;;;;;;;;;;;;;;2106924;28;19951;-49
2022/01/04 02:02:42;;;;;;;;;;;;;;;;;;2105698;28;20073;-49
2022/01/04 02:03:43;;;;;;;;;;;;;;;;;;2105759;28;20060;-50
2022/01/04 02:04:44;;;;;;;;;;;;;;;;;;2106889;28;19927;-49
2022/01/04 02:05:44;;;;;;;;;;;;;;;;;;2104819;28;19927;-52
2022/01/04 02:06:45;;;;;;;;;;;;;;;;;;2102167;28;19969;-48
2022/01/04 02:07:46;;;;;;;;;;;;;;;;;;2098659;28;19920;-49
2022/01/04 02:08:47;;;;;;;;;;;;;;;;;;2100679;28;20284;-49
2022/01/04 02:09:58;;;;;;;;;;;;;;;;;;2105730;28;19920;-51
2022/01/04 02:10:59;;;;;;;;;;;;;;;;;;2106928;28;19920;-49
2022/01/04 02:12:00;;;;;;;;;;;;;;;;;;2105162;28;20276;-49
2022/01/04 02:13:01;;;;;;;;;;;;;;;;;;2106423;28;19919;-49
2022/01/04 02:14:02;;;;;;;;;;;;;;;;;;2107075;28;19920;-49
2022/01/04 02:15:03;;;;;;;;;;;;;;;;;;2107665;28;19920;-50
2022/01/04 02:16:04;;;;;;;;;;;;;;;;;;2106609;28;19930;-49
2022/01/04 02:17:05;;;;;;;;;;;;;;;;;;2106967;28;19990;-50
2022/01/04 02:18:06;;;;;;;;;;;;;;;;;;2107828;28;19926;-48
2022/01/04 02:19:07;;;;;;;;;;;;;;;;;;2106952;28;20023;-49
2022/01/04 02:20:08;;;;;;;;;;;;;;;;;;2106838;28;19920;-49
2022/01/04 02:21:09;;;;;;;;;;;;;;;;;;2107030;28;19920;-49
2022/01/04 02:22:09;;;;;;;;;;;;;;;;;;2098418;28;19924;-50
2022/01/04 02:23:10;;;;;;;;;;;;;;;;;;2098661;28;19924;-51
2022/01/04 02:24:11;;;;;;;;;;;;;;;;;;2103954;28;20423;-49
2022/01/04 02:25:12;;;;;;;;;;;;;;;;;;2106896;28;19919;-52
2022/01/04 02:26:13;;;;;;;;;;;;;;;;;;2106342;28;19927;-49
2022/01/04 02:27:13;;;;;;;;;;;;;;;;;;2107643;28;19928;-49
2022/01/04 02:28:18;;;;;;;;;;;;;;;;;;2115168;28;19920;-49
2022/01/04 02:29:18;;;;;;;;;;;;;;;;;;2113422;28;20436;-51
2022/01/04 02:30:19;;;;;;;;;;;;;;;;;;2102356;28;19928;-49
2022/01/04 02:31:20;;;;;;;;;;;;;;;;;;2098282;28;20082;-50
2022/01/04 02:32:21;;;;;;;;;;;;;;;;;;2102020;28;19924;-48
2022/01/04 02:33:22;;;;;;;;;;;;;;;;;;2105544;28;19920;-48
2022/01/04 02:34:23;;;;;;;;;;;;;;;;;;2106447;28;19920;-50
2022/01/04 02:35:24;;;;;;;;;;;;;;;;;;2104674;28;19920;-49
2022/01/04 02:36:24;;;;;;;;;;;;;;;;;;2105984;28;19927;-48
2022/01/04 02:37:25;;;;;;;;;;;;;;;;;;2106801;28;19927;-49
2022/01/04 02:38:26;;;;;;;;;;;;;;;;;;2105416;28;20346;-48
2022/01/04 02:39:27;;;;;;;;;;;;;;;;;;2106161;28;19920;-49
2022/01/04 02:40:28;;;;;;;;;;;;;;;;;;2106656;28;20269;-50
2022/01/04 02:41:28;;;;;;;;;;;;;;;;;;2105739;28;19923;-49
2022/01/04 02:42:29;;;;;;;;;;;;;;;;;;2102987;28;19924;-49
2022/01/04 02:43:30;;;;;;;;;;;;;;;;;;2098292;28;19926;-49
2022/01/04 02:44:31;;;;;;;;;;;;;;;;;;2100498;28;19920;-49
2022/01/04 02:45:32;;;;;;;;;;;;;;;;;;2100324;28;20428;-48
2022/01/04 02:46:33;;;;;;;;;;;;;;;;;;2098160;28;19921;-49
2022/01/04 02:47:33;;;;;;;;;;;;;;;;;;2102092;28;20362;-49
2022/01/04 02:48:34;;;;;;;;;;;;;;;;;;2105607;28;19920;-49
2022/01/04 02:49:35;;;;;;;;;;;;;;;;;;2106600;28;20377;-49
2022/01/04 02:50:36;;;;;;;;;;;;;;;;;;2104662;28;20019;-48
2022/01/04 02:51:38;;;;;;;;;;;;;;;;;;2105354;28;19919;-49
2022/01/04 02:52:38;;;;;;;;;;;;;;;;;;2106779;28;20021;-48
2022/01/04 02:53:39;;;;;;;;;;;;;;;;;;2104250;28;19927;-48
2022/01/04 02:54:40;;;;;;;;;;;;;;;;;;2106423;28;20407;-49
2022/01/04 02:55:41;;;;;;;;;;;;;;;;;;2106655;28;19923;-50
2022/01/04 02:56:42;;;;;;;;;;;;;;;;;;2104064;28;19920;-48
2022/01/04 02:57:43;;;;;;;;;;;;;;;;;;2106606;28;20384;-49
2022/01/04 02:58:43;;;;;;;;;;;;;;;;;;2106806;28;19920;-49
2022/01/04 02:59:44;;;;;;;;;;;;;;;;;;2103510;28;20281;-48
2022/01/04 03:00:45;;;;;;;;;;;;;;;;;;2098148;28;19927;-49
2022/01/04 03:01:46;;;;;;;;;;;;;;;;;;2098257;28;19921;-49
2022/01/04 03:02:47;;;;;;;;;;;;;;;;;;2104539;28;19981;-50
2022/01/04 03:03:48;;;;;;;;;;;;;;;;;;2106668;28;19927;-48
2022/01/04 03:04:49;;;;;;;;;;;;;;;;;;2106158;28;19920;-50
2022/01/04 03:05:50;;;;;;;;;;;;;;;;;;2107823;28;19981;-50
2022/01/04 03:06:51;;;;;;;;;;;;;;;;;;2114975;28;20006;-49
2022/01/04 03:07:51;;;;;;;;;;;;;;;;;;2113405;28;19926;-49
2022/01/04 03:08:54;;;;;;;;;;;;;;;;;;2105222;28;19920;-52
2022/01/04 03:09:55;;;;;;;;;;;;;;;;;;2098069;28;19924;-48
2022/01/04 03:10:55;;;;;;;;;;;;;;;;;;2099133;28;20353;-49
2022/01/04 03:11:56;;;;;;;;;;;;;;;;;;2105182;28;19983;-49
2022/01/04 03:12:57;;;;;;;;;;;;;;;;;;2098117;28;19920;-48
2022/01/04 03:13:58;;;;;;;;;;;;;;;;;;2098676;28;19921;-52
2022/01/04 03:14:59;;;;;;;;;;;;;;;;;;2101920;28;19943;-48
2022/01/04 03:15:59;;;;;;;;;;;;;;;;;;2098100;28;20377;-50
2022/01/04 03:17:00;;;;;;;;;;;;;;;;;;2099923;28;20357;-47
2022/01/04 03:18:01;;;;;;;;;;;;;;;;;;2105260;28;19920;-49
2022/01/04 03:19:03;;;;;;;;;;;;;;;;;;2106429;28;19920;-47
2022/01/04 03:20:04;;;;;;;;;;;;;;;;;;2105426;28;19919;-49
2022/01/04 03:21:05;;;;;;;;;;;;;;;;;;2104870;28;19930;-48
2022/01/04 03:22:06;;;;;;;;;;;;;;;;;;2106585;28;19930;-48
2022/01/04 03:23:10;;;;;;;;;;;;;;;;;;2105350;28;19927;-49
2022/01/04 03:24:11;;;;;;;;;;;;;;;;;;2106278;28;20011;-48
2022/01/04 03:25:12;;;;;;;;;;;;;;;;;;2106450;28;19920;-49
2022/01/04 03:26:12;;;;;;;;;;;;;;;;;;2107340;28;20291;-48
2022/01/04 03:27:13;;;;;;;;;;;;;;;;;;2098854;28;19928;-48
2022/01/04 03:28:16;;;;;;;;;;;;;;;;;;2098048;28;19966;-49
2022/01/04 03:29:17;;;;;;;;;;;;;;;;;;2105590;28;20064;-48
2022/01/04 03:30:18;;;;;;;;;;;;;;;;;;2098068;28;19969;-48
2022/01/04 03:31:18;;;;;;;;;;;;;;;;;;2098134;28;19970;-48
2022/01/04 03:32:19;;;;;;;;;;;;;;;;;;2104637;28;19968;-48
2022/01/04 03:33:20;;;;;;;;;;;;;;;;;;2106477;28;19935;-48
2022/01/04 03:34:21;;;;;;;;;;;;;;;;;;2106353;28;19928;-48
2022/01/04 03:35:22;;;;;;;;;;;;;;;;;;2104064;28;19920;-47
2022/01/04 03:36:24;;;;;;;;;;;;;;;;;;2105946;28;20293;-48
2022/01/04 03:37:25;;;;;;;;;;;;;;;;;;2105949;28;20011;-48
2022/01/04 03:38:25;;;;;;;;;;;;;;;;;;2106122;28;19928;-48
2022/01/04 03:39:26;;;;;;;;;;;;;;;;;;2098027;28;20277;-47
2022/01/04 03:40:27;;;;;;;;;;;;;;;;;;2098239;28;19928;-49
2022/01/04 03:41:28;;;;;;;;;;;;;;;;;;2104167;28;19974;-49
2022/01/04 03:42:28;;;;;;;;;;;;;;;;;;2106315;28;20403;-51
2022/01/04 03:43:29;;;;;;;;;;;;;;;;;;2105617;28;19920;-50
2022/01/04 03:44:30;;;;;;;;;;;;;;;;;;2105081;28;19924;-49
2022/01/04 03:45:31;;;;;;;;;;;;;;;;;;2097931;28;20305;-50
2022/01/04 03:46:32;;;;;;;;;;;;;;;;;;2097835;28;20010;-52
2022/01/04 03:47:33;;;;;;;;;;;;;;;;;;2104963;28;19921;-49
2022/01/04 03:48:33;;;;;;;;;;;;;;;;;;2098031;28;19920;-49
2022/01/04 03:49:34;;;;;;;;;;;;;;;;;;2098496;28;19924;-48
2022/01/04 03:50:35;;;;;;;;;;;;;;;;;;2111379;28;19920;-48
2022/01/04 03:51:36;;;;;;;;;;;;;;;;;;2114615;28;20297;-48
2022/01/04 03:52:37;;;;;;;;;;;;;;;;;;2105596;28;19920;-48
2022/01/04 03:53:38;;;;;;;;;;;;;;;;;;2104904;28;19920;-50
2022/01/04 03:54:39;;;;;;;;;;;;;;;;;;2106140;28;19930;-48
2022/01/04 03:55:40;;;;;;;;;;;;;;;;;;2105256;28;19920;-52
2022/01/04 03:56:40;;;;;;;;;;;;;;;;;;2104786;28;19920;-51
2022/01/04 03:57:41;;;;;;;;;;;;;;;;;;2106091;28;19969;-50
2022/01/04 03:58:42;;;;;;;;;;;;;;;;;;2106080;28;19927;-49
2022/01/04 03:59:43;;;;;;;;;;;;;;;;;;2101167;28;19927;-49
2022/01/04 04:00:43;;;;;;;;;;;;;;;;;;2097922;28;20439;-48
2022/01/04 04:01:44;;;;;;;;;;;;;;;;;;2103167;28;20366;-51
2022/01/04 04:02:45;;;;;;;;;;;;;;;;;;2099407;28;20366;-48
2022/01/04 04:03:46;;;;;;;;;;;;;;;;;;2097810;28;19928;-57
2022/01/04 04:04:47;;;;;;;;;;;;;;;;;;2101593;28;19919;-57
2022/01/04 04:05:49;;;;;;;;;;;;;;;;;;2104990;28;19920;-58
2022/01/04 04:06:49;;;;;;;;;;;;;;;;;;2106309;28;19927;-58
2022/01/04 04:07:50;;;;;;;;;;;;;;;;;;2103897;28;19959;-57
2022/01/04 04:08:51;;;;;;;;;;;;;;;;;;2106175;28;19926;-57
2022/01/04 04:09:52;;;;;;;;;;;;;;;;;;2106215;28;19941;-57
2022/01/04 04:10:53;;;;;;;;;;;;;;;;;;2103594;28;20357;-57
2022/01/04 04:11:54;;;;;;;;;;;;;;;;;;2106186;28;19920;-54
2022/01/04 04:12:54;;;;;;;;;;;;;;;;;;2106084;28;19920;-55
2022/01/04 04:13:55;;;;;;;;;;;;;;;;;;2105535;28;19924;-57
2022/01/04 04:14:58;;;;;;;;;;;;;;;;;;2114505;28;19920;-56
2022/01/04 04:15:59;;;;;;;;;;;;;;;;;;2113768;28;20006;-56
2022/01/04 04:17:00;;;;;;;;;;;;;;;;;;2104130;28;19928;-57
2022/01/04 04:18:01;;;;;;;;;;;;;;;;;;2106206;28;19924;-57
2022/01/04 04:19:01;;;;;;;;;;;;;;;;;;2105666;28;19920;-56
2022/01/04 04:20:02;;;;;;;;;;;;;;;;;;2104048;28;19927;-57
2022/01/04 04:21:03;;;;;;;;;;;;;;;;;;2106046;28;19926;-54
2022/01/04 04:22:04;;;;;;;;;;;;;;;;;;2105504;28;19927;-57
2022/01/04 04:23:05;;;;;;;;;;;;;;;;;;2107347;28;19927;-56
2022/01/04 04:24:06;;;;;;;;;;;;;;;;;;2114546;28;19976;-56
2022/01/04 04:25:07;;;;;;;;;;;;;;;;;;2110992;28;19920;-54
2022/01/04 04:26:08;;;;;;;;;;;;;;;;;;2104843;28;19924;-55
2022/01/04 04:27:08;;;;;;;;;;;;;;;;;;2106218;28;20015;-57
2022/01/04 04:28:09;;;;;;;;;;;;;;;;;;2104260;28;20643;-57
2022/01/04 04:29:10;;;;;;;;;;;;;;;;;;2104354;28;19928;-52
2022/01/04 04:30:11;;;;;;;;;;;;;;;;;;2097596;28;19925;-57
2022/01/04 04:31:12;;;;;;;;;;;;;;;;;;2099719;28;19920;-57
2022/01/04 04:32:12;;;;;;;;;;;;;;;;;;2107119;28;19920;-57
2022/01/04 04:33:13;;;;;;;;;;;;;;;;;;2114382;28;19968;-57
2022/01/04 04:34:14;;;;;;;;;;;;;;;;;;2109413;28;20307;-56
2022/01/04 04:35:15;;;;;;;;;;;;;;;;;;2105709;28;19920;-56
2022/01/04 04:36:16;;;;;;;;;;;;;;;;;;2106046;28;19919;-57
2022/01/04 04:37:16;;;;;;;;;;;;;;;;;;2103897;28;19928;-56
2022/01/04 04:38:18;;;;;;;;;;;;;;;;;;2112932;28;19919;-54
2022/01/04 04:39:19;;;;;;;;;;;;;;;;;;2114531;28;20006;-52
2022/01/04 04:40:20;;;;;;;;;;;;;;;;;;2107406;28;20392;-54
2022/01/04 04:41:20;;;;;;;;;;;;;;;;;;2103890;28;19946;-56
2022/01/04 04:42:22;;;;;;;;;;;;;;;;;;2106159;28;20499;-56
2022/01/04 04:43:23;;;;;;;;;;;;;;;;;;2106694;28;20422;-55
2022/01/04 04:44:24;;;;;;;;;;;;;;;;;;2098358;28;20109;-55
2022/01/04 04:45:24;;;;;;;;;;;;;;;;;;2097552;28;20300;-54
2022/01/04 04:46:25;;;;;;;;;;;;;;;;;;2103625;28;20380;-55
2022/01/04 04:47:26;;;;;;;;;;;;;;;;;;2114212;28;20288;-54
2022/01/04 04:48:27;;;;;;;;;;;;;;;;;;2114304;28;19924;-53
2022/01/04 04:49:28;;;;;;;;;;;;;;;;;;2104835;28;20472;-55
2022/01/04 04:50:29;;;;;;;;;;;;;;;;;;2114444;28;19920;-55
2022/01/04 04:51:30;;;;;;;;;;;;;;;;;;2114392;28;19971;-55
2022/01/04 04:52:31;;;;;;;;;;;;;;;;;;2106178;28;20049;-54
2022/01/04 04:53:32;;;;;;;;;;;;;;;;;;2097532;28;19920;-56
2022/01/04 04:54:33;;;;;;;;;;;;;;;;;;2097400;28;20336;-55
2022/01/04 04:55:34;;;;;;;;;;;;;;;;;;2105469;28;19928;-56
2022/01/04 04:56:38;;;;;;;;;;;;;;;;;;2097633;28;20289;-57
2022/01/04 04:57:38;;;;;;;;;;;;;;;;;;2098776;28;19971;-57
2022/01/04 04:58:39;;;;;;;;;;;;;;;;;;2105453;28;19928;-57
2022/01/04 04:59:40;;;;;;;;;;;;;;;;;;2107270;28;19928;-56
2022/01/04 05:00:41;;;;;;;;;;;;;;;;;;2106233;28;20419;-55
2022/01/04 05:01:42;;;;;;;;;;;;;;;;;;2105952;28;19920;-57
2022/01/04 05:02:43;;;;;;;;;;;;;;;;;;2098970;28;20389;-56
2022/01/04 05:03:44;;;;;;;;;;;;;;;;;;2099606;28;19920;-55
2022/01/04 05:04:45;;;;;;;;;;;;;;;;;;2112040;28;19942;-57
2022/01/04 05:05:45;;;;;;;;;;;;;;;;;;2115746;28;19919;-57
2022/01/04 05:06:47;;;;;;;;;;;;;;;;;;2111033;28;19923;-53
2022/01/04 05:07:48;;;;;;;;;;;;;;;;;;2107241;28;19926;-56
2022/01/04 05:08:48;;;;;;;;;;;;;;;;;;2107353;28;19920;-55
2022/01/04 05:09:49;;;;;;;;;;;;;;;;;;2105267;28;19920;-54
2022/01/04 05:10:50;;;;;;;;;;;;;;;;;;2101637;28;19969;-54
2022/01/04 05:11:51;;;;;;;;;;;;;;;;;;2098951;28;20274;-53
2022/01/04 05:12:52;;;;;;;;;;;;;;;;;;2102075;28;19920;-54
2022/01/04 05:13:52;;;;;;;;;;;;;;;;;;2108120;28;19923;-56
2022/01/04 05:14:53;;;;;;;;;;;;;;;;;;2107242;28;19920;-54
2022/01/04 05:15:54;;;;;;;;;;;;;;;;;;2104597;28;19920;-55
2022/01/04 05:16:55;;;;;;;;;;;;;;;;;;2113935;28;20064;-55
2022/01/04 05:17:56;;;;;;;;;;;;;;;;;;2115605;28;19976;-54
2022/01/04 05:18:56;;;;;;;;;;;;;;;;;;2107653;28;19926;-56
2022/01/04 05:19:57;;;;;;;;;;;;;;;;;;2115357;28;19926;-56
2022/01/04 05:20:58;;;;;;;;;;;;;;;;;;2115704;28;19920;-56
2022/01/04 05:21:59;;;;;;;;;;;;;;;;;;2106769;28;19919;-57
2022/01/04 05:23:00;;;;;;;;;;;;;;;;;;2107270;28;19927;-57
2022/01/04 05:24:01;;;;;;;;;;;;;;;;;;2107270;28;19928;-54
2022/01/04 05:25:02;;;;;;;;;;;;;;;;;;2108112;28;19934;-57
2022/01/04 05:26:02;;;;;;;;;;;;;;;;;;2098821;28;19927;-56
2022/01/04 05:27:03;;;;;;;;;;;;;;;;;;2098864;28;19927;-54
2022/01/04 05:28:04;;;;;;;;;;;;;;;;;;2104877;28;19928;-56
2022/01/04 05:29:05;;;;;;;;;;;;;;;;;;2115532;28;19927;-54
2022/01/04 05:30:05;;;;;;;;;;;;;;;;;;2115725;28;19968;-56
2022/01/04 05:31:06;;;;;;;;;;;;;;;;;;2104584;28;19924;-56
2022/01/04 05:32:07;;;;;;;;;;;;;;;;;;2105820;28;19920;-56
2022/01/04 05:33:08;;;;;;;;;;;;;;;;;;2106594;28;19928;-56
2022/01/04 05:34:09;;;;;;;;;;;;;;;;;;2108454;28;19949;-53
2022/01/04 05:35:10;;;;;;;;;;;;;;;;;;2107168;28;19928;-54
2022/01/04 05:36:10;;;;;;;;;;;;;;;;;;2106394;28;19923;-55
2022/01/04 05:37:11;;;;;;;;;;;;;;;;;;2105890;28;19920;-56
2022/01/04 05:38:12;;;;;;;;;;;;;;;;;;2098709;28;20332;-56
2022/01/04 05:39:13;;;;;;;;;;;;;;;;;;2099568;28;19920;-52
2022/01/04 05:40:13;;;;;;;;;;;;;;;;;;2105468;28;20258;-55
2022/01/04 05:41:14;;;;;;;;;;;;;;;;;;2107159;28;20281;-54
2022/01/04 05:42:15;;;;;;;;;;;;;;;;;;2105746;28;19926;-56
2022/01/04 05:43:16;;;;;;;;;;;;;;;;;;2105700;28;20293;-56
2022/01/04 05:44:17;;;;;;;;;;;;;;;;;;2098835;28;19926;-54
2022/01/04 05:45:18;;;;;;;;;;;;;;;;;;2099555;28;20574;-54
2022/01/04 05:46:18;;;;;;;;;;;;;;;;;;2106148;28;19996;-54
2022/01/04 05:47:19;;;;;;;;;;;;;;;;;;2107218;28;19920;-56
2022/01/04 05:48:21;;;;;;;;;;;;;;;;;;2106185;28;20372;-56
2022/01/04 05:49:22;;;;;;;;;;;;;;;;;;2105087;28;20006;-53
2022/01/04 05:50:22;;;;;;;;;;;;;;;;;;2106703;28;19924;-54
2022/01/04 05:51:23;;;;;;;;;;;;;;;;;;2106179;28;20274;-53
2022/01/04 05:52:24;;;;;;;;;;;;;;;;;;2107841;28;19947;-53
2022/01/04 05:53:25;;;;;;;;;;;;;;;;;;2106929;28;20369;-53
2022/01/04 05:54:26;;;;;;;;;;;;;;;;;;2105086;28;19921;-53
2022/01/04 05:55:27;;;;;;;;;;;;;;;;;;2105886;28;20339;-53
2022/01/04 05:56:27;;;;;;;;;;;;;;;;;;2106924;28;19931;-53
2022/01/04 05:57:28;;;;;;;;;;;;;;;;;;2103569;28;19928;-51
2022/01/04 05:58:29;;;;;;;;;;;;;;;;;;2106808;28;19920;-54
2022/01/04 05:59:30;;;;;;;;;;;;;;;;;;2107104;28;20262;-50
2022/01/04 06:00:31;;;;;;;;;;;;;;;;;;2107827;28;20377;-49
2022/01/04 06:01:35;;;;;;;;;;;;;;;;;;2099004;28;20061;-50
2022/01/04 06:02:35;;;;;;;;;;;;;;;;;;2098577;28;19973;-51
2022/01/04 06:03:36;;;;;;;;;;;;;;;;;;2106416;28;19923;-53
2022/01/04 06:04:37;;;;;;;;;;;;;;;;;;2098667;28;19924;-51
2022/01/04 06:05:38;;;;;;;;;;;;;;;;;;2098549;28;20270;-50
2022/01/04 06:06:40;;;;;;;;;;;;;;;;;;2103840;28;20019;-53
2022/01/04 06:07:41;;;;;;;;;;;;;;;;;;2106927;28;20014;-54
2022/01/04 06:08:42;;;;;;;;;;;;;;;;;;2106854;28;20300;-55
2022/01/04 06:09:45;;;;;;;;;;;;;;;;;;2104543;28;19919;-54
2022/01/04 06:10:50;;;;;;;;;;;;;;;;;;2098537;28;20042;-53
2022/01/04 06:12:02;;;;;;;;;;;;;;;;;;2099164;28;19927;-53
2022/01/04 06:15:41;;;;;;;;;;;;;;;;;;2104239;28;20352;-48
2022/01/04 06:16:42;;;;;;;;;;;;;;;;;;2106976;28;19920;-48
2022/01/04 06:17:43;;;;;;;;;;;;;;;;;;2106436;28;19923;-48
2022/01/04 06:18:44;;;;;;;;;;;;;;;;;;2107392;28;20413;-48
2022/01/04 06:19:45;;;;;;;;;;;;;;;;;;2115439;28;19923;-49
2022/01/04 06:20:46;;;;;;;;;;;;;;;;;;2112713;28;19972;-48
2022/01/04 06:21:50;;;;;;;;;;;;;;;;;;2105895;28;20006;-48
2022/01/04 06:22:51;;;;;;;;;;;;;;;;;;2106887;28;19989;-47
2022/01/04 06:23:53;;;;;;;;;;;;;;;;;;2105232;28;20416;-47
2022/01/04 06:24:54;;;;;;;;;;;;;;;;;;2111514;28;20319;-50
2022/01/04 06:25:55;;;;;;;;;;;;;;;;;;2115199;28;19971;-48
2022/01/04 06:26:56;;;;;;;;;;;;;;;;;;2110686;28;19973;-50
2022/01/04 06:27:57;;;;;;;;;;;;;;;;;;2103427;28;19926;-46
2022/01/04 06:28:58;;;;;;;;;;;;;;;;;;2098437;28;19921;-47
2022/01/04 06:29:58;;;;;;;;;;;;;;;;;;2100558;28;19936;-50
2022/01/04 06:30:59;;;;;;;;;;;;;;;;;;2106792;28;19993;-48
2022/01/04 06:32:00;;;;;;;;;;;;;;;;;;2105409;28;19920;-49
2022/01/04 06:33:01;;;;;;;;;;;;;;;;;;2103508;28;19924;-46
2022/01/04 06:34:02;;;;;;;;;;;;;;;;;;2098339;28;19981;-49
2022/01/04 06:35:03;;;;;;;;;;;;;;;;;;2099289;28;19927;-48
2022/01/04 06:36:03;;;;;;;;;;;;;;;;;;2102008;28;20377;-46
2022/01/04 06:37:04;;;;;;;;;;;;;;;;;;2098345;28;19924;-50
2022/01/04 06:38:05;;;;;;;;;;;;;;;;;;2098995;28;19920;-48
2022/01/04 06:39:06;;;;;;;;;;;;;;;;;;2105612;28;20373;-50
2022/01/04 06:40:06;;;;;;;;;;;;;;;;;;2106645;28;20349;-47
2022/01/04 06:41:07;;;;;;;;;;;;;;;;;;2104783;28;20396;-46
2022/01/04 06:42:08;;;;;;;;;;;;;;;;;;2105012;28;19927;-46
2022/01/04 06:43:09;;;;;;;;;;;;;;;;;;2106779;28;20322;-50
2022/01/04 06:44:10;;;;;;;;;;;;;;;;;;2105494;28;20292;-48
2022/01/04 06:45:11;;;;;;;;;;;;;;;;;;2105242;28;19924;-50
2022/01/04 06:46:13;;;;;;;;;;;;;;;;;;2106594;28;19972;-48
2022/01/04 06:47:14;;;;;;;;;;;;;;;;;;2106341;28;19928;-47
2022/01/04 06:48:15;;;;;;;;;;;;;;;;;;2102191;28;19927;-48
2022/01/04 06:49:16;;;;;;;;;;;;;;;;;;2098273;28;19928;-52
2022/01/04 06:50:18;;;;;;;;;;;;;;;;;;2101911;28;19920;-50
2022/01/04 06:51:19;;;;;;;;;;;;;;;;;;2098349;28;19967;-49
2022/01/04 06:52:20;;;;;;;;;;;;;;;;;;2098276;28;19920;-51
2022/01/04 06:53:21;;;;;;;;;;;;;;;;;;2103633;28;20006;-49
2022/01/04 06:54:21;;;;;;;;;;;;;;;;;;2106682;28;19920;-49
2022/01/04 06:55:22;;;;;;;;;;;;;;;;;;2106088;28;19920;-53
2022/01/04 06:56:23;;;;;;;;;;;;;;;;;;2103457;28;19930;-51
2022/01/04 06:57:24;;;;;;;;;;;;;;;;;;2106483;28;19927;-51
2022/01/04 06:58:24;;;;;;;;;;;;;;;;;;2106126;28;19920;-49
2022/01/04 06:59:25;;;;;;;;;;;;;;;;;;2107748;28;19926;-49
2022/01/04 07:00:26;;;;;;;;;;;;;;;;;;2115243;28;19919;-51
2022/01/04 07:01:27;;;;;;;;;;;;;;;;;;2113172;28;19920;-53
2022/01/04 07:02:28;;;;;;;;;;;;;;;;;;2102012;28;19928;-56